Lehigh Acres, FL (33936)

3:53 PM EDT on September 23, 2014 (GMT -0400)
Central Lehigh Acres | Change Station
CLOSE
Current Station
Personal Weather Station
Location: Lehigh Acres, FL
Elevation: 30 ft
Nearby Weather Stations

Elev 30 ft 26.60 °N, 81.63 °W | Updated 5 seconds ago

Mostly Cloudy
Mostly Cloudy
85.8 °F
Feels Like 93 °F
N
0.0
Wind Variable Wind from SSE
Gusts 8.0 mph

Today
High -- | Low -- °F
--% Chance of Precip.
Yesterday
High -- | Low -- °F
Precip. -- in
7:15 AM 7:21 PM
Waning Crescent, 0% visible
Pressure 29.97 in
Visibility 10.0 miles
Clouds Few 3500 ft
Heat Index 93 °F
Dew Point 73 °F
Humidity 65%
Rainfall 0.01 in
Snow Depth Not available.
UV 10 out of 12
Pollen 2.60 out of 12
Air Quality Not available.
Flu Activity Not available.
METAR KRSW 231853Z 20007KT 10SM FEW035 27/20 A2998 RMK AO2 SLP149 T02720200

More Conditions Fewer Conditions

Pressure 29.97 in
Visibility 10.0 miles
Clouds Few 3500 ft
Heat Index 93 °F
Dew Point 73 °F
Humidity 65%
Rainfall 0.01 in
Snow Depth Not available.
UV 10 out of 12
Pollen 2.60 out of 12
Air Quality Not available.
Flu Activity Not available.
METAR KRSW 231853Z 20007KT 10SM FEW035 27/20 A2998 RMK AO2 SLP149 T02720200

More Conditions Fewer Conditions

10-Day Weather Forecast

Almanac

Astronomy

Sep. 23, 2014 Rise Set
Actual Time 7:15 AM EDT 7:21 PM EDT
Civil Twilight 6:52 AM EDT 7:44 PM EDT
Nautical Twilight 6:25 AM EDT 8:11 PM EDT
Astronomical Twilight 5:58 AM EDT 8:38 PM EDT
Moon 6:39 AM EDT 7:01 PM EDT
Length of Visible Light 12h 52m
Length of Day
12h 06m
Tomorrow will be 1m 34s shorter.
Waning Crescent, 0% of the Moon is Illuminated
Today
Waning Crescent
Sep 24
New
Oct 1
First Quarter
Oct 8
Full
Oct 15
Last Quarter

Today's Extremes

State Highs State Lows

Community

WunderPhotos

Upload Photos

1,755,788 photos uploaded!

WunderBlogs® & News

Nearby

Snow Depth

Station Depth Elevation
No new snow has been reported.

Earthquake Activity

City Distance Mag. Time & Date
No recent earthquake activity has been reported nearby.
Minimum magnitude displayed is 2.5.

Coastal Water Temperatures

Place Temperature
Fort Myers, FL 82.9 °F
Naples, FL 87.1 °F

Nearby Weather Stations